createdAt,value
2019-03-23T00:00:30.184Z,73.80
2019-03-23T00:02:59.644Z,73.60
2019-03-23T00:05:29.014Z,72.20
2019-03-23T00:07:59.797Z,71.40
2019-03-23T00:10:29.320Z,71.70
2019-03-23T00:12:59.169Z,71.40
2019-03-23T00:15:28.898Z,71.20
2019-03-23T00:17:58.429Z,71.00
2019-03-23T00:20:27.883Z,70.80
2019-03-23T00:22:57.801Z,71.60
2019-03-23T00:25:27.658Z,70.40
2019-03-23T00:27:57.417Z,71.10
2019-03-23T00:30:26.861Z,71.40
2019-03-23T00:32:56.414Z,70.80
2019-03-23T00:35:26.121Z,70.60
2019-03-23T00:37:55.654Z,70.60
2019-03-23T00:40:25.327Z,70.40
2019-03-23T00:42:55.077Z,70.80
2019-03-23T00:45:24.737Z,71.10
2019-03-23T00:47:54.503Z,72.30
2019-03-23T00:50:24.357Z,72.70
2019-03-23T00:52:54.118Z,72.30
2019-03-23T00:55:23.995Z,71.80
2019-03-23T00:57:54.183Z,72.60
2019-03-23T01:00:23.768Z,72.10
2019-03-23T01:02:53.376Z,71.80
2019-03-23T01:05:23.135Z,71.50
2019-03-23T01:07:52.991Z,70.20
2019-03-23T01:10:22.475Z,69.70
2019-03-23T01:12:52.167Z,70.60
2019-03-23T01:15:21.810Z,71.50
2019-03-23T01:17:51.768Z,70.70
2019-03-23T01:20:21.483Z,70.40
2019-03-23T01:22:51.018Z,71.00
2019-03-23T01:25:20.953Z,71.00
2019-03-23T01:27:50.983Z,70.50
2019-03-23T01:30:20.811Z,70.70
2019-03-23T01:32:50.244Z,70.60
2019-03-23T01:35:19.970Z,70.90
2019-03-23T01:37:49.618Z,71.00
2019-03-23T01:40:19.546Z,72.00
2019-03-23T01:42:49.507Z,71.90
2019-03-23T01:45:19.174Z,71.60
2019-03-23T01:47:48.858Z,72.50
2019-03-23T01:50:18.415Z,72.00
2019-03-23T01:52:48.063Z,72.10
2019-03-23T01:55:17.830Z,72.70
2019-03-23T01:57:47.526Z,73.10
2019-03-23T02:00:17.607Z,72.50
2019-03-23T02:02:47.633Z,72.40
2019-03-23T02:05:17.480Z,72.60
2019-03-23T02:07:47.118Z,72.50
2019-03-23T02:10:16.948Z,72.40
2019-03-23T02:12:46.587Z,72.20
2019-03-23T02:15:16.442Z,72.10
2019-03-23T02:17:45.878Z,72.40
2019-03-23T02:20:15.720Z,72.20
2019-03-23T02:22:45.799Z,71.80
2019-03-23T02:25:15.752Z,72.10
2019-03-23T02:27:45.187Z,72.60
2019-03-23T02:30:14.845Z,72.90
2019-03-23T02:32:44.497Z,72.70
2019-03-23T02:35:14.675Z,73.00
2019-03-23T02:37:44.218Z,71.80
2019-03-23T02:40:13.903Z,71.90
2019-03-23T02:42:44.718Z,72.10
2019-03-23T02:45:14.595Z,72.00
2019-03-23T02:47:44.041Z,72.00
2019-03-23T02:50:14.016Z,72.80
2019-03-23T02:52:43.779Z,73.20
2019-03-23T02:55:14.590Z,73.70
2019-03-23T02:57:44.630Z,72.80
2019-03-23T03:00:15.928Z,73.60
2019-03-23T03:02:45.669Z,72.80
2019-03-23T03:05:15.711Z,72.60
2019-03-23T03:07:45.163Z,73.00
2019-03-23T03:10:36.429Z,73.20
2019-03-23T03:13:06.348Z,71.90
2019-03-23T03:15:35.803Z,71.40
2019-03-23T03:18:06.988Z,71.80
2019-03-23T03:20:36.754Z,71.30
2019-03-23T03:23:06.548Z,71.10
2019-03-23T03:25:36.471Z,72.30
2019-03-23T03:28:06.188Z,71.70
2019-03-23T03:30:36.054Z,72.20
2019-03-23T03:33:05.867Z,72.30
2019-03-23T03:35:35.810Z,72.30
2019-03-23T03:38:05.347Z,71.70
2019-03-23T03:40:39.350Z,71.50
2019-03-23T03:43:09.013Z,72.80
2019-03-23T03:45:39.559Z,72.60
2019-03-23T03:48:09.290Z,72.10
2019-03-23T03:50:38.952Z,72.20
2019-03-23T03:53:08.698Z,73.00
2019-03-23T03:55:39.891Z,73.20
2019-03-23T03:58:10.575Z,73.60
2019-03-23T04:00:41.708Z,73.10
2019-03-23T04:03:12.057Z,73.10
2019-03-23T04:05:41.976Z,72.60
2019-03-23T04:08:12.214Z,72.90
2019-03-23T04:10:42.199Z,72.70
2019-03-23T04:13:11.683Z,73.10
2019-03-23T04:15:41.066Z,73.20
2019-03-23T04:18:10.924Z,73.30
2019-03-23T04:20:40.450Z,73.80
2019-03-23T04:23:10.315Z,73.60
2019-03-23T04:25:40.288Z,73.30
2019-03-23T04:28:10.299Z,73.70
2019-03-23T04:30:40.016Z,74.20
2019-03-23T04:33:09.961Z,72.20
2019-03-23T04:35:39.502Z,72.40
2019-03-23T04:38:09.173Z,72.90
2019-03-23T04:40:39.494Z,71.40
2019-03-23T04:43:10.252Z,70.80
2019-03-23T04:45:39.903Z,70.00
2019-03-23T04:48:09.442Z,71.00
2019-03-23T04:50:39.100Z,72.20
2019-03-23T04:53:08.834Z,73.00
2019-03-23T04:55:38.590Z,72.20
2019-03-23T04:58:08.835Z,70.20
2019-03-23T05:00:38.290Z,70.60
2019-03-23T05:03:07.736Z,70.50
2019-03-23T05:05:37.603Z,70.60
2019-03-23T05:08:07.122Z,71.50
2019-03-23T05:10:36.821Z,72.40
2019-03-23T05:13:08.464Z,72.00
2019-03-23T05:15:38.517Z,72.40
2019-03-23T05:18:08.033Z,72.70
2019-03-23T05:20:39.184Z,73.00
2019-03-23T05:23:08.835Z,72.60
2019-03-23T05:25:38.561Z,72.50
2019-03-23T05:28:08.197Z,72.80
2019-03-23T05:30:38.158Z,72.90
2019-03-23T05:33:07.899Z,72.40
2019-03-23T05:35:37.377Z,72.30
2019-03-23T05:38:07.293Z,71.90
2019-03-23T05:40:37.007Z,71.50
2019-03-23T05:43:06.876Z,71.20
2019-03-23T05:45:36.637Z,70.40
2019-03-23T05:48:06.290Z,70.70
2019-03-23T05:50:36.033Z,70.90
2019-03-23T05:53:05.742Z,70.40
2019-03-23T05:55:35.263Z,71.10
2019-03-23T05:58:04.913Z,71.40
2019-03-23T06:00:35.663Z,71.20
2019-03-23T06:03:05.603Z,71.80
2019-03-23T06:05:35.174Z,71.20
2019-03-23T06:08:04.677Z,71.30
2019-03-23T06:10:35.174Z,70.70
2019-03-23T06:13:05.088Z,72.10
2019-03-23T06:15:34.772Z,72.90
2019-03-23T06:18:04.758Z,73.00
2019-03-23T06:20:34.391Z,71.80
2019-03-23T06:23:04.054Z,71.40
2019-03-23T06:25:33.999Z,72.00
2019-03-23T06:28:04.486Z,72.50
2019-03-23T06:30:34.446Z,72.80
2019-03-23T06:33:04.152Z,73.30
2019-03-23T06:35:33.818Z,73.40
2019-03-23T06:38:03.354Z,73.40
2019-03-23T06:40:33.007Z,72.90
2019-03-23T06:43:03.162Z,72.90
2019-03-23T06:45:33.404Z,73.30
2019-03-23T06:48:02.967Z,72.70
2019-03-23T06:50:32.538Z,72.50
2019-03-23T06:53:02.232Z,72.10
2019-03-23T06:55:31.878Z,71.60
2019-03-23T06:58:01.624Z,72.40
2019-03-23T07:00:31.346Z,72.80
2019-03-23T07:03:00.786Z,72.80
2019-03-23T07:05:30.539Z,72.50
2019-03-23T07:08:00.316Z,72.30
2019-03-23T07:10:30.154Z,72.10
2019-03-23T07:12:59.894Z,71.80
2019-03-23T07:15:29.760Z,71.30
2019-03-23T07:17:59.198Z,70.70
2019-03-23T07:20:28.793Z,70.90
2019-03-23T07:22:58.745Z,71.10
2019-03-23T07:25:28.212Z,71.10
2019-03-23T07:27:57.726Z,72.40
2019-03-23T07:30:28.012Z,70.90
2019-03-23T07:32:57.779Z,70.30
2019-03-23T07:35:27.483Z,70.50
2019-03-23T07:37:57.795Z,70.70
2019-03-23T07:40:27.528Z,70.30
2019-03-23T07:42:58.830Z,70.10
2019-03-23T07:45:28.562Z,69.90
2019-03-23T07:47:58.272Z,68.90
2019-03-23T07:50:27.948Z,68.90
2019-03-23T07:52:57.695Z,68.80
2019-03-23T07:55:27.602Z,68.60
2019-03-23T07:57:57.651Z,69.60
2019-03-23T08:00:27.531Z,69.80
2019-03-23T08:02:57.346Z,69.30
2019-03-23T08:05:27.211Z,69.50
2019-03-23T08:07:59.541Z,68.30
2019-03-23T08:10:33.938Z,68.20
2019-03-23T08:13:04.122Z,68.90
2019-03-23T08:15:34.052Z,68.90
2019-03-23T08:18:03.966Z,68.20
2019-03-23T08:20:33.467Z,67.80
2019-03-23T08:23:03.174Z,67.70
2019-03-23T08:25:32.905Z,67.60
2019-03-23T08:28:03.208Z,68.90
2019-03-23T08:30:32.909Z,67.10
2019-03-23T08:33:02.698Z,67.20
2019-03-23T08:35:32.341Z,67.00
2019-03-23T08:38:01.851Z,67.50
2019-03-23T08:40:31.405Z,67.10
2019-03-23T08:43:01.063Z,66.20
2019-03-23T08:45:30.716Z,66.30
2019-03-23T08:48:00.167Z,66.10
2019-03-23T08:50:29.758Z,65.60
2019-03-23T08:52:59.943Z,65.80
2019-03-23T08:55:29.800Z,66.60
2019-03-23T08:57:59.736Z,66.00
2019-03-23T09:00:29.482Z,67.50
2019-03-23T09:02:59.350Z,64.80
2019-03-23T09:05:29.056Z,64.70
2019-03-23T09:07:58.728Z,64.20
2019-03-23T09:10:28.475Z,65.60
2019-03-23T09:12:58.144Z,63.80
2019-03-23T09:15:27.864Z,63.90
2019-03-23T09:17:57.643Z,64.20
2019-03-23T09:20:29.398Z,64.00
2019-03-23T09:22:58.639Z,64.40
2019-03-23T09:25:28.296Z,64.80
2019-03-23T09:27:58.027Z,63.50
2019-03-23T09:30:28.043Z,63.30
2019-03-23T09:32:57.705Z,62.30
2019-03-23T09:35:27.352Z,62.20
2019-03-23T09:37:57.073Z,63.10
2019-03-23T09:40:27.022Z,62.40
2019-03-23T09:42:56.692Z,61.60
2019-03-23T09:45:26.791Z,61.10
2019-03-23T09:47:56.959Z,60.70
2019-03-23T09:50:27.843Z,61.40
2019-03-23T09:52:57.625Z,62.20
2019-03-23T09:55:28.664Z,63.10
2019-03-23T09:57:59.838Z,61.10
2019-03-23T10:00:29.791Z,61.70
2019-03-23T10:02:59.516Z,62.60
2019-03-23T10:05:29.028Z,62.90
2019-03-23T10:07:58.891Z,61.40
2019-03-23T10:10:28.627Z,63.30
2019-03-23T10:12:58.741Z,63.70
2019-03-23T10:15:28.184Z,63.20
2019-03-23T10:17:57.937Z,64.30
2019-03-23T10:20:28.252Z,64.30
2019-03-23T10:22:58.011Z,65.00
2019-03-23T10:25:27.558Z,64.30
2019-03-23T10:27:57.359Z,66.20
2019-03-23T10:30:27.125Z,63.00
2019-03-23T10:32:56.802Z,63.60
2019-03-23T10:35:26.330Z,63.00
2019-03-23T10:37:55.965Z,64.10
2019-03-23T10:40:32.365Z,64.50
2019-03-23T10:42:56.827Z,64.20
2019-03-23T10:45:26.566Z,64.70
2019-03-23T10:50:26.187Z,64.10
2019-03-23T10:52:55.848Z,65.60
2019-03-23T10:55:25.592Z,62.30
2019-03-23T10:57:56.430Z,62.60
2019-03-23T11:00:26.111Z,63.70
2019-03-23T11:02:55.942Z,63.40
2019-03-23T11:05:25.702Z,65.70
2019-03-23T11:07:56.765Z,64.80
2019-03-23T11:10:26.513Z,65.40
2019-03-23T11:12:56.426Z,62.30
2019-03-23T11:15:25.933Z,57.60
2019-03-23T11:17:55.412Z,61.60
2019-03-23T11:20:25.956Z,61.90
2019-03-23T11:22:55.887Z,60.40
2019-03-23T11:25:25.602Z,62.10
2019-03-23T11:27:55.925Z,61.50
2019-03-23T11:30:25.562Z,57.30
2019-03-23T11:32:55.006Z,59.40
2019-03-23T11:35:24.650Z,60.90
2019-03-23T11:37:54.479Z,65.60
2019-03-23T11:40:24.846Z,59.40
2019-03-23T11:42:54.583Z,57.60
2019-03-23T11:45:24.468Z,59.10
2019-03-23T11:47:54.286Z,59.90
2019-03-23T11:50:24.330Z,60.00
2019-03-23T11:52:55.046Z,61.70
2019-03-23T11:55:24.690Z,58.80
2019-03-23T11:57:54.251Z,62.00
2019-03-23T12:00:23.909Z,60.00
2019-03-23T12:02:53.733Z,60.40
2019-03-23T12:05:23.203Z,58.50
2019-03-23T12:07:53.477Z,59.50
2019-03-23T12:10:23.200Z,61.60
2019-03-23T12:12:52.664Z,61.90
2019-03-23T12:15:22.676Z,62.20
2019-03-23T12:17:52.538Z,55.80
2019-03-23T12:20:22.403Z,58.40
2019-03-23T12:22:51.960Z,53.30
2019-03-23T12:25:21.860Z,53.90
2019-03-23T12:27:52.158Z,57.40
2019-03-23T12:30:22.070Z,60.30
2019-03-23T12:32:51.798Z,59.30
2019-03-23T12:35:21.438Z,56.80
2019-03-23T12:37:51.001Z,56.40
2019-03-23T12:40:20.895Z,57.10
2019-03-23T12:42:51.052Z,58.10
2019-03-23T12:45:20.947Z,57.10
2019-03-23T12:47:51.594Z,56.80
2019-03-23T12:50:21.028Z,59.50
2019-03-23T12:52:50.693Z,55.40
2019-03-23T12:55:20.135Z,53.80
2019-03-23T12:57:50.303Z,54.50
2019-03-23T13:00:20.084Z,52.80
2019-03-23T13:02:49.937Z,56.50
2019-03-23T13:05:19.446Z,53.30
2019-03-23T13:07:49.282Z,58.30
2019-03-23T13:10:19.039Z,54.40
2019-03-23T13:12:48.806Z,55.60
2019-03-23T13:15:19.321Z,55.60
2019-03-23T13:17:49.230Z,56.40
2019-03-23T13:20:18.736Z,56.90
2019-03-23T13:22:48.440Z,59.40
2019-03-23T13:25:18.182Z,56.50
2019-03-23T13:27:47.827Z,57.50
2019-03-23T13:30:18.100Z,58.40
2019-03-23T13:32:47.547Z,55.40
2019-03-23T13:35:17.402Z,58.90
2019-03-23T13:37:47.132Z,58.80
2019-03-23T13:40:16.846Z,59.20
2019-03-23T13:42:46.633Z,59.50
2019-03-23T13:45:16.334Z,60.00
2019-03-23T13:47:46.279Z,60.70
2019-03-23T13:50:18.751Z,60.40
2019-03-23T13:52:48.606Z,61.20
2019-03-23T13:55:26.287Z,60.80
2019-03-23T13:57:57.816Z,59.80
2019-03-23T14:00:27.584Z,60.20
2019-03-23T14:02:57.031Z,60.70
2019-03-23T14:05:26.799Z,61.70
2019-03-23T14:07:56.454Z,60.60
2019-03-23T14:10:28.031Z,59.90
2019-03-23T14:12:59.189Z,58.90
2019-03-23T14:15:28.643Z,59.20
2019-03-23T14:17:58.127Z,60.20
2019-03-23T14:20:27.564Z,60.80
2019-03-23T14:23:02.510Z,61.60
2019-03-23T14:25:28.463Z,62.30
2019-03-23T14:27:57.918Z,59.10
2019-03-23T14:30:27.369Z,60.20
2019-03-23T14:32:58.168Z,61.70
2019-03-23T14:35:27.754Z,60.50
2019-03-23T14:37:57.477Z,59.90
2019-03-23T14:40:27.121Z,59.70
2019-03-23T14:42:56.680Z,60.20
2019-03-23T14:45:26.385Z,60.20
2019-03-23T14:47:57.147Z,62.50
2019-03-23T14:50:26.921Z,61.10
2019-03-23T14:52:56.568Z,62.30
2019-03-23T14:55:26.467Z,62.10
2019-03-23T14:57:56.497Z,60.30
2019-03-23T15:00:30.541Z,60.50
2019-03-23T15:03:00.285Z,59.80
2019-03-23T15:05:31.011Z,60.60
2019-03-23T15:08:00.920Z,60.30
2019-03-23T15:10:30.507Z,62.00
2019-03-23T15:13:00.409Z,59.70
2019-03-23T15:15:29.800Z,60.90
2019-03-23T15:18:00.133Z,59.30
2019-03-23T15:20:29.891Z,59.50
2019-03-23T15:22:59.975Z,59.70
2019-03-23T15:25:30.744Z,61.60
2019-03-23T15:28:00.706Z,60.90
2019-03-23T15:30:30.655Z,60.30
2019-03-23T15:33:00.280Z,59.00
2019-03-23T15:35:29.744Z,60.60
2019-03-23T15:38:00.104Z,59.90
2019-03-23T15:40:29.754Z,62.10
2019-03-23T15:43:00.540Z,61.20
2019-03-23T15:45:29.950Z,61.10
2019-03-23T15:47:59.883Z,62.00
2019-03-23T15:50:29.425Z,62.00
2019-03-23T15:52:59.182Z,61.60
2019-03-23T15:55:29.096Z,62.40
2019-03-23T15:57:58.971Z,61.90
2019-03-23T16:00:28.918Z,62.10
2019-03-23T16:02:58.850Z,59.90
2019-03-23T16:05:28.766Z,60.40
2019-03-23T16:07:59.663Z,60.30
2019-03-23T16:10:29.558Z,60.00
2019-03-23T16:12:59.471Z,61.00
2019-03-23T16:15:29.394Z,61.00
2019-03-23T16:18:01.429Z,60.80
2019-03-23T16:20:30.670Z,60.20
2019-03-23T16:23:00.114Z,60.80
2019-03-23T16:25:29.838Z,60.70
2019-03-23T16:28:01.051Z,60.50
2019-03-23T16:30:32.449Z,59.70
2019-03-23T16:33:02.274Z,58.90
2019-03-23T16:35:31.935Z,59.00
2019-03-23T16:38:01.477Z,58.40
2019-03-23T16:40:31.182Z,57.50
2019-03-23T16:43:00.620Z,55.30
2019-03-23T16:45:30.198Z,58.50
2019-03-23T16:47:59.828Z,58.40
2019-03-23T16:50:29.383Z,56.80
2019-03-23T16:52:59.102Z,54.20
2019-03-23T16:55:28.540Z,54.70
2019-03-23T16:57:58.300Z,54.00
2019-03-23T17:00:33.915Z,55.40
2019-03-23T17:03:05.420Z,54.40
2019-03-23T17:05:36.431Z,55.10
2019-03-23T17:08:06.522Z,57.40
2019-03-23T17:10:36.287Z,57.90
2019-03-23T17:13:06.063Z,55.90
2019-03-23T17:15:35.902Z,55.90
2019-03-23T17:18:06.053Z,56.00
2019-03-23T17:20:35.978Z,55.20
2019-03-23T17:23:06.015Z,56.10
2019-03-23T17:25:37.653Z,55.30
2019-03-23T17:28:07.068Z,57.90
2019-03-23T17:30:36.618Z,55.60
2019-03-23T17:33:08.937Z,57.60
2019-03-23T17:35:38.627Z,54.80
2019-03-23T17:38:08.164Z,55.40
2019-03-23T17:40:37.932Z,54.60
2019-03-23T17:43:07.555Z,54.30
2019-03-23T17:45:37.091Z,55.40
2019-03-23T17:48:06.847Z,56.50
2019-03-23T17:50:37.535Z,56.40
2019-03-23T17:53:07.256Z,58.50
2019-03-23T17:55:37.361Z,55.60
2019-03-23T17:58:07.313Z,56.40
2019-03-23T18:00:36.827Z,57.20
2019-03-23T18:03:06.451Z,57.00
2019-03-23T18:05:36.081Z,57.80
2019-03-23T18:08:05.954Z,59.90
2019-03-23T18:10:35.618Z,56.10
2019-03-23T18:13:15.818Z,57.40
2019-03-23T18:15:36.975Z,57.20
2019-03-23T18:18:06.609Z,57.00
2019-03-23T18:20:36.455Z,56.80
2019-03-23T18:23:06.169Z,58.20
2019-03-23T18:25:35.687Z,58.30
2019-03-23T18:28:05.689Z,58.30
2019-03-23T18:30:40.636Z,57.90
2019-03-23T18:33:10.602Z,57.80
2019-03-23T18:35:40.326Z,59.00
2019-03-23T18:38:10.163Z,59.60
2019-03-23T18:40:39.685Z,59.80
2019-03-23T18:43:09.634Z,59.30
2019-03-23T18:45:39.004Z,59.10
2019-03-23T18:48:08.745Z,58.80
2019-03-23T18:50:38.163Z,60.00
2019-03-23T18:53:08.026Z,60.20
2019-03-23T18:55:37.754Z,59.50
2019-03-23T18:58:07.188Z,60.10
2019-03-23T19:00:42.034Z,59.80
2019-03-23T19:03:11.927Z,60.10
2019-03-23T19:05:41.754Z,60.80
2019-03-23T19:08:12.022Z,60.60
2019-03-23T19:10:42.183Z,61.10
2019-03-23T19:13:11.984Z,62.00
2019-03-23T19:15:41.509Z,60.80
2019-03-23T19:18:10.956Z,60.80
2019-03-23T19:20:40.711Z,61.00
2019-03-23T19:23:10.180Z,62.40
2019-03-23T19:25:39.920Z,62.20
2019-03-23T19:28:09.467Z,62.80
2019-03-23T19:30:39.264Z,62.60
2019-03-23T19:33:08.725Z,63.10
2019-03-23T19:35:38.294Z,62.60
2019-03-23T19:38:08.111Z,63.10
2019-03-23T19:40:38.008Z,63.20
2019-03-23T19:43:07.780Z,62.70
2019-03-23T19:45:37.227Z,63.20
2019-03-23T19:48:06.983Z,63.60
2019-03-23T19:50:36.390Z,64.00
2019-03-23T19:53:06.938Z,63.60
2019-03-23T19:55:36.872Z,64.60
2019-03-23T19:58:06.830Z,64.60
2019-03-23T20:00:36.694Z,64.40
2019-03-23T20:03:06.452Z,64.50
2019-03-23T20:05:36.305Z,64.60
2019-03-23T20:08:06.049Z,64.10
2019-03-23T20:10:35.746Z,65.10
2019-03-23T20:13:05.911Z,65.00
2019-03-23T20:15:35.541Z,64.80
2019-03-23T20:18:06.213Z,65.60
2019-03-23T20:20:35.735Z,65.80
2019-03-23T20:23:05.653Z,65.50
2019-03-23T20:25:35.387Z,65.40
2019-03-23T20:28:05.096Z,65.90
2019-03-23T20:30:36.941Z,66.00
2019-03-23T20:33:06.631Z,65.60
2019-03-23T20:35:36.255Z,65.60
2019-03-23T20:38:05.905Z,65.30
2019-03-23T20:40:35.632Z,65.20
2019-03-23T20:43:05.981Z,66.20
2019-03-23T20:45:35.419Z,66.70
2019-03-23T20:48:05.160Z,69.30
2019-03-23T20:50:35.344Z,66.80
2019-03-23T20:53:05.261Z,66.40
2019-03-23T20:55:35.193Z,66.20
2019-03-23T20:58:04.884Z,66.80
2019-03-23T21:00:34.610Z,66.70
2019-03-23T21:03:04.088Z,67.60
2019-03-23T21:05:34.435Z,67.60
2019-03-23T21:08:04.348Z,68.10
2019-03-23T21:10:33.806Z,68.50
2019-03-23T21:13:03.820Z,68.10
2019-03-23T21:15:33.628Z,67.90
2019-03-23T21:18:03.579Z,68.10
2019-03-23T21:20:33.112Z,68.20
2019-03-23T21:23:02.923Z,69.40
2019-03-23T21:25:32.736Z,69.30
2019-03-23T21:28:02.189Z,69.00
2019-03-23T21:30:32.127Z,69.10
2019-03-23T21:33:01.579Z,69.60
2019-03-23T21:35:31.316Z,69.80
2019-03-23T21:38:00.783Z,68.50
2019-03-23T21:40:30.232Z,68.90
2019-03-23T21:42:59.662Z,68.00
2019-03-23T21:45:30.978Z,66.90
2019-03-23T21:48:01.111Z,65.50
2019-03-23T21:50:31.259Z,66.70
2019-03-23T21:53:01.109Z,66.20
2019-03-23T21:55:30.849Z,66.80
2019-03-23T21:58:01.207Z,66.00
2019-03-23T22:00:35.331Z,65.60
2019-03-23T22:03:05.133Z,65.40
2019-03-23T22:05:35.268Z,64.60
2019-03-23T22:08:05.222Z,64.50
2019-03-23T22:10:34.789Z,61.30
2019-03-23T22:13:04.659Z,60.60
2019-03-23T22:15:34.273Z,58.90
2019-03-23T22:18:04.825Z,58.90
2019-03-23T22:20:35.077Z,58.80
2019-03-23T22:23:04.630Z,58.20
2019-03-23T22:25:34.443Z,57.70
2019-03-23T22:28:04.354Z,57.20
2019-03-23T22:30:34.159Z,58.00
2019-03-23T22:33:03.781Z,57.60
2019-03-23T22:35:33.514Z,58.00
2019-03-23T22:38:02.961Z,58.10
2019-03-23T22:40:32.484Z,56.90
2019-03-23T22:43:02.648Z,55.30
2019-03-23T22:45:32.592Z,56.60
2019-03-23T22:48:02.147Z,56.70
2019-03-23T22:50:32.334Z,56.70
2019-03-23T22:53:01.780Z,56.80
2019-03-23T22:55:31.630Z,56.30
2019-03-23T22:58:01.569Z,57.60
2019-03-23T23:00:41.528Z,57.80
2019-03-23T23:03:11.530Z,57.80
2019-03-23T23:05:41.131Z,58.10
2019-03-23T23:08:10.570Z,58.40
2019-03-23T23:10:40.018Z,56.90
2019-03-23T23:13:09.545Z,57.20
2019-03-23T23:15:39.359Z,57.30
2019-03-23T23:18:08.988Z,57.80
2019-03-23T23:20:39.169Z,57.40
2019-03-23T23:23:08.855Z,56.70
2019-03-23T23:25:39.184Z,57.30
2019-03-23T23:28:08.689Z,57.30
2019-03-23T23:30:38.147Z,57.90
2019-03-23T23:33:07.892Z,59.00
2019-03-23T23:35:37.623Z,58.10
2019-03-23T23:38:07.162Z,58.90
2019-03-23T23:40:37.006Z,59.20
2019-03-23T23:43:06.539Z,58.50
2019-03-23T23:45:36.191Z,60.20
2019-03-23T23:48:06.071Z,59.20
2019-03-23T23:50:36.043Z,59.80
2019-03-23T23:53:06.038Z,59.80
2019-03-23T23:55:35.869Z,60.40
2019-03-23T23:58:05.821Z,61.20
